Time;durP1;ratioP1;P1;durP2;ratioP2;P2;SDS_P1;SDS_P2;PMS_P1;PMS_P2;Temp;Humidity;BMP_temperature;BMP_pressure;BME280_temperature;BME280_humidity;BME280_pressure;Samples;Min_cycle;Max_cycle;Signal;HPM_P1;HPM_P2
2022/02/12 00:01:53;;;;;;;14.07;8.02;;;;;;;2.96;59.43;95432.22;5124344;27;20039;-66
2022/02/12 00:04:19;;;;;;;11.75;7.25;;;;;;;2.91;59.72;95442.66;5111294;27;20035;-66
2022/02/12 00:06:44;;;;;;;15.00;7.80;;;;;;;2.85;60.29;95435.22;5112427;27;20050;-66
2022/02/12 00:09:09;;;;;;;10.43;7.13;;;;;;;2.84;60.45;95439.53;5102714;27;20502;-66
2022/02/12 00:11:35;;;;;;;12.57;7.95;;;;;;;2.77;60.54;95447.56;5115653;27;20023;-66
2022/02/12 00:14:00;;;;;;;13.23;8.43;;;;;;;2.75;60.46;95451.91;5125018;27;20405;-66
2022/02/12 00:16:26;;;;;;;21.10;11.50;;;;;;;2.61;60.32;95463.56;5116740;27;20024;-66
2022/02/12 00:18:51;;;;;;;42.63;22.33;;;;;;;2.53;59.78;95464.78;5112108;27;20031;-66
2022/02/12 00:21:16;;;;;;;36.08;19.80;;;;;;;2.47;60.09;95476.13;5111620;28;20058;-66
2022/02/12 00:23:42;;;;;;;34.60;19.02;;;;;;;2.44;60.08;95473.69;5115518;27;20039;-66
2022/02/12 00:26:07;;;;;;;29.95;16.10;;;;;;;2.39;60.50;95471.31;5130605;27;20031;-66
2022/02/12 00:28:33;;;;;;;30.38;17.45;;;;;;;2.32;60.77;95481.88;5097355;27;20034;-66
2022/02/12 00:30:58;;;;;;;26.42;12.73;;;;;;;2.16;61.65;95463.72;5116649;27;20402;-66
2022/02/12 00:33:24;;;;;;;19.50;11.07;;;;;;;2.22;61.51;95482.22;5114903;27;20028;-66
2022/02/12 00:35:49;;;;;;;13.23;8.45;;;;;;;2.17;61.76;95484.16;5114726;27;20028;-66
2022/02/12 00:38:16;;;;;;;16.70;8.55;;;;;;;2.06;62.07;95486.28;5113515;27;20040;-66
2022/02/12 00:40:41;;;;;;;11.55;7.28;;;;;;;2.04;63.48;95480.41;5112196;27;20512;-66
2022/02/12 00:43:06;;;;;;;11.65;7.35;;;;;;;1.94;62.94;95485.03;5113259;27;20449;-66
2022/02/12 00:45:32;;;;;;;10.60;6.75;;;;;;;1.83;63.71;95484.63;5094006;28;20039;-66
2022/02/12 00:47:57;;;;;;;12.65;7.13;;;;;;;1.74;63.58;95485.81;5110818;28;20536;-66
2022/02/12 00:50:23;;;;;;;11.40;6.07;;;;;;;1.68;63.03;95487.78;5119763;27;20027;-67
2022/02/12 00:52:48;;;;;;;13.85;8.20;;;;;;;1.60;62.50;95488.03;5132354;27;20420;-66
2022/02/12 00:55:14;;;;;;;10.65;7.22;;;;;;;1.49;63.96;95477.38;5117392;27;20405;-66
2022/02/12 00:57:39;;;;;;;14.68;8.30;;;;;;;1.49;63.50;95495.28;5112966;27;20046;-66
2022/02/12 01:00:06;;;;;;;13.32;7.88;;;;;;;1.46;63.91;95490.28;5120843;27;20031;-66
2022/02/12 01:02:31;;;;;;;9.90;6.88;;;;;;;1.28;63.76;95495.19;5095215;27;20027;-66
2022/02/12 01:04:56;;;;;;;14.27;8.57;;;;;;;1.19;64.80;95503.16;5090223;28;20032;-66
2022/02/12 01:07:22;;;;;;;15.50;8.65;;;;;;;1.13;65.42;95497.44;5115317;27;20088;-66
2022/02/12 01:09:47;;;;;;;16.05;8.73;;;;;;;1.14;65.55;95497.38;5130573;27;20088;-66
2022/02/12 01:12:13;;;;;;;17.73;9.45;;;;;;;1.20;66.12;95499.72;5126487;27;20046;-66
2022/02/12 01:14:38;;;;;;;14.95;8.80;;;;;;;1.19;66.34;95498.03;5111674;28;20039;-66
2022/02/12 01:17:04;;;;;;;15.23;9.07;;;;;;;1.14;65.18;95494.81;5124621;27;20042;-66
2022/02/12 01:19:29;;;;;;;14.77;8.75;;;;;;;1.11;65.85;95503.47;5130351;27;20032;-66
2022/02/12 01:21:54;;;;;;;13.82;8.68;;;;;;;1.11;65.59;95505.16;5112862;28;20024;-66
2022/02/12 01:24:20;;;;;;;17.00;8.55;;;;;;;1.06;65.84;95512.19;5111722;27;20062;-66
2022/02/12 01:26:45;;;;;;;13.35;9.07;;;;;;;1.05;66.54;95503.66;5095159;27;20080;-66
2022/02/12 01:29:11;;;;;;;15.35;8.95;;;;;;;1.08;66.70;95518.88;5109290;28;20031;-66
2022/02/12 01:31:36;;;;;;;14.35;8.52;;;;;;;1.07;66.53;95513.84;5114562;27;20016;-66
2022/02/12 01:34:02;;;;;;;12.65;8.43;;;;;;;1.03;66.82;95509.69;5120029;27;20060;-66
2022/02/12 01:36:27;;;;;;;14.38;8.88;;;;;;;0.94;66.59;95503.19;5094262;28;20028;-66
2022/02/12 01:38:53;;;;;;;21.20;11.93;;;;;;;1.01;66.22;95504.66;5111331;28;20028;-66
2022/02/12 01:41:18;;;;;;;24.25;13.32;;;;;;;1.02;66.34;95515.72;5111225;27;20474;-66
2022/02/12 01:43:43;;;;;;;15.48;7.82;;;;;;;0.97;66.77;95525.28;5111337;28;20043;-66
2022/02/12 01:46:09;;;;;;;29.27;16.15;;;;;;;0.77;67.09;95531.06;5110655;28;20023;-66
2022/02/12 01:48:35;;;;;;;37.17;19.48;;;;;;;0.80;67.08;95542.00;5109904;28;20056;-66
2022/02/12 01:51:02;;;;;;;37.28;18.50;;;;;;;0.85;66.64;95552.94;5110703;28;20039;-66
2022/02/12 01:53:27;;;;;;;39.80;20.60;;;;;;;0.86;66.10;95544.41;5128323;28;20106;-66
2022/02/12 01:55:54;;;;;;;31.17;16.88;;;;;;;0.86;66.22;95546.94;5117298;27;20024;-66
2022/02/12 01:58:20;;;;;;;24.88;14.60;;;;;;;0.89;67.16;95540.88;5110998;28;20039;-66
2022/02/12 02:00:45;;;;;;;25.67;13.82;;;;;;;0.85;66.97;95545.25;5115445;28;20027;-66
2022/02/12 02:03:12;;;;;;;34.65;15.55;;;;;;;0.81;67.21;95538.59;5130058;28;20058;-66
2022/02/12 02:05:38;;;;;;;18.95;10.32;;;;;;;0.75;67.40;95540.50;5130042;28;20035;-66
2022/02/12 02:08:03;;;;;;;18.10;10.00;;;;;;;0.77;67.59;95546.41;5128526;28;20027;-66
2022/02/12 02:10:29;;;;;;;16.65;9.35;;;;;;;0.75;67.04;95548.16;5092906;28;20031;-66
2022/02/12 02:12:54;;;;;;;21.63;11.25;;;;;;;0.69;67.19;95553.50;5078158;28;21014;-66
2022/02/12 02:15:20;;;;;;;20.05;10.15;;;;;;;0.62;66.64;95563.09;5127670;28;20060;-66
2022/02/12 02:17:45;;;;;;;18.90;10.15;;;;;;;0.56;66.52;95559.00;5110987;28;20461;-66
2022/02/12 02:20:11;;;;;;;23.42;12.13;;;;;;;0.54;66.77;95565.06;5121238;28;20030;-66
2022/02/12 02:22:56;;;;;;;28.85;15.52;;;;;;;0.38;67.19;95545.06;5129973;28;20083;-66
2022/02/12 02:25:22;;;;;;;39.53;19.33;;;;;;;0.51;66.83;95570.28;5113300;27;20052;-66
2022/02/12 02:27:48;;;;;;;37.42;20.42;;;;;;;0.48;67.36;95570.38;5088775;28;20103;-66
2022/02/12 02:30:14;;;;;;;24.58;13.98;;;;;;;0.52;67.45;95577.03;5129735;28;20031;-66
2022/02/12 02:32:41;;;;;;;18.75;11.05;;;;;;;0.52;67.85;95572.75;5097013;28;20497;-66
2022/02/12 02:35:07;;;;;;;16.63;8.93;;;;;;;0.48;68.02;95567.81;5113085;28;20412;-66
2022/02/12 02:37:32;;;;;;;13.98;8.90;;;;;;;0.50;68.44;95574.53;5124294;27;20040;-66
2022/02/12 02:39:58;;;;;;;16.88;7.97;;;;;;;0.47;69.12;95573.78;5114608;28;20480;-66
2022/02/12 02:42:24;;;;;;;13.30;8.38;;;;;;;0.42;69.19;95564.56;5114549;27;20039;-66
2022/02/12 02:44:49;;;;;;;14.20;8.65;;;;;;;0.53;69.50;95571.91;5118722;27;20468;-66
2022/02/12 02:47:33;;;;;;;14.23;8.13;;;;;;;0.54;69.41;95575.28;5134790;27;20042;-66
2022/02/12 02:49:59;;;;;;;19.65;10.32;;;;;;;0.57;69.33;95577.75;5135062;27;20038;-65
2022/02/12 02:57:52;;;;;;;11.93;6.97;;;;;;;0.70;68.79;95570.50;5118250;27;20054;-66
2022/02/12 03:00:17;;;;;;;11.13;6.45;;;;;;;0.77;68.66;95575.38;5114479;28;20501;-66
2022/02/12 03:02:43;;;;;;;10.93;6.97;;;;;;;0.91;68.20;95579.22;5112895;28;20035;-66
2022/02/12 03:05:08;;;;;;;12.77;6.57;;;;;;;0.87;68.27;95570.81;5132715;27;20430;-66
2022/02/12 03:07:34;;;;;;;9.93;6.45;;;;;;;0.96;67.74;95575.63;5133238;27;20393;-66
2022/02/12 03:09:59;;;;;;;10.63;6.88;;;;;;;1.13;67.33;95587.00;5116272;27;20373;-66
2022/02/12 03:12:25;;;;;;;14.32;7.10;;;;;;;1.18;67.26;95587.69;5123747;27;20027;-66
2022/02/12 03:14:50;;;;;;;10.30;6.35;;;;;;;1.12;67.60;95583.63;5120201;27;20030;-66
2022/02/12 03:17:15;;;;;;;10.05;5.82;;;;;;;1.24;67.23;95587.50;5125134;27;20032;-66
2022/02/12 03:19:41;;;;;;;10.13;6.25;;;;;;;1.32;66.64;95586.34;5113567;27;20035;-66
2022/02/12 03:22:06;;;;;;;10.52;6.60;;;;;;;1.32;66.25;95591.44;5125278;27;20047;-66
2022/02/12 03:24:32;;;;;;;10.57;5.38;;;;;;;1.41;65.85;95589.47;5132957;27;20497;-66
2022/02/12 03:26:57;;;;;;;10.63;6.00;;;;;;;1.50;65.27;95595.09;5131609;27;20084;-66
2022/02/12 03:29:22;;;;;;;8.50;5.85;;;;;;;1.53;65.65;95599.28;5132408;27;20043;-66
2022/02/12 03:31:49;;;;;;;9.50;6.40;;;;;;;1.54;66.12;95601.78;5098721;27;20015;-66
2022/02/12 03:34:14;;;;;;;9.15;6.13;;;;;;;1.53;65.68;95604.41;5119020;27;20511;-66
2022/02/12 03:36:39;;;;;;;10.27;6.68;;;;;;;1.58;65.15;95619.59;5112357;27;20027;-66
2022/02/12 03:39:05;;;;;;;15.15;8.00;;;;;;;1.64;65.26;95616.81;5104961;27;20035;-66
2022/02/12 03:41:30;;;;;;;10.07;6.68;;;;;;;1.62;65.42;95626.31;5132682;27;20079;-66
2022/02/12 03:43:56;;;;;;;12.82;6.50;;;;;;;1.62;64.89;95632.28;5114930;27;20400;-66
2022/02/12 03:46:21;;;;;;;13.88;7.05;;;;;;;1.69;64.67;95633.72;5131590;27;20023;-66
2022/02/12 03:48:47;;;;;;;11.93;6.30;;;;;;;1.70;65.14;95648.22;5131701;27;20027;-66
2022/02/12 03:51:12;;;;;;;13.70;7.22;;;;;;;1.76;64.48;95645.44;5130785;27;20024;-66
2022/02/12 03:53:37;;;;;;;10.77;6.88;;;;;;;1.79;64.40;95642.75;5111957;27;20032;-66
2022/02/12 03:56:03;;;;;;;13.32;6.80;;;;;;;1.83;64.61;95642.63;5095916;27;20020;-66
2022/02/12 03:58:28;;;;;;;11.25;6.65;;;;;;;1.90;64.11;95650.06;5130506;27;20038;-66
2022/02/12 04:00:54;;;;;;;10.63;5.97;;;;;;;1.88;64.43;95640.75;5116580;27;20035;-66
2022/02/12 04:03:19;;;;;;;10.52;6.45;;;;;;;1.93;63.83;95649.94;5114384;27;20062;-65
2022/02/12 04:05:45;;;;;;;10.30;6.30;;;;;;;1.94;63.86;95649.06;5132044;27;20041;-66
2022/02/12 04:08:13;;;;;;;8.93;6.03;;;;;;;1.93;64.12;95639.69;5116676;27;20081;-66
2022/02/12 04:10:39;;;;;;;11.52;7.07;;;;;;;2.07;64.38;95652.03;5122374;27;20035;-66
2022/02/12 04:13:05;;;;;;;11.23;7.07;;;;;;;2.08;64.17;95655.41;5113937;27;20028;-67
2022/02/12 04:15:30;;;;;;;10.20;6.30;;;;;;;2.12;64.09;95660.38;5122655;27;20084;-66
2022/02/12 04:17:56;;;;;;;10.95;6.47;;;;;;;2.12;64.55;95665.50;5096239;28;20034;-66
2022/02/12 04:20:22;;;;;;;10.25;6.97;;;;;;;2.24;64.00;95675.31;5110986;27;20390;-66
2022/02/12 04:22:48;;;;;;;13.35;7.78;;;;;;;2.26;64.12;95679.53;5111354;28;20592;-66
2022/02/12 04:25:15;;;;;;;11.82;7.38;;;;;;;2.26;64.36;95687.22;5111414;28;20047;-66
2022/02/12 04:27:40;;;;;;;11.35;6.90;;;;;;;2.13;65.01;95692.81;5112416;27;20027;-66
2022/02/12 04:30:06;;;;;;;10.98;6.80;;;;;;;2.10;64.86;95692.91;5120247;27;20051;-66
2022/02/12 04:32:32;;;;;;;13.00;6.82;;;;;;;2.00;65.17;95692.41;5111518;28;20043;-66
2022/02/12 04:34:59;;;;;;;11.48;7.05;;;;;;;1.96;65.27;95695.13;5112755;28;20027;-66
2022/02/12 04:37:25;;;;;;;12.30;8.18;;;;;;;2.00;65.06;95705.22;5113438;27;20523;-66
2022/02/12 04:39:50;;;;;;;15.35;10.00;;;;;;;1.96;65.85;95708.78;5111482;28;20024;-66
2022/02/12 04:42:17;;;;;;;12.20;8.65;;;;;;;2.00;65.97;95712.06;5111528;28;20043;-66
2022/02/12 04:44:49;;;;;;;14.05;8.02;;;;;;;2.12;65.24;95721.06;5112255;28;20024;-66
2022/02/12 04:47:15;;;;;;;17.05;8.98;;;;;;;2.17;65.18;95725.16;5120547;27;20031;-66
2022/02/12 04:49:40;;;;;;;12.18;8.52;;;;;;;2.23;64.92;95730.06;5112078;28;20065;-66
2022/02/12 04:52:06;;;;;;;15.25;10.23;;;;;;;2.27;64.56;95732.50;5127492;27;20027;-68
2022/02/12 04:54:32;;;;;;;16.70;12.15;;;;;;;2.16;64.61;95727.75;5093450;28;20027;-66
2022/02/12 04:56:58;;;;;;;19.65;11.60;;;;;;;2.28;66.00;95739.28;5100310;27;20031;-66
2022/02/12 04:59:23;;;;;;;20.13;12.32;;;;;;;2.27;65.61;95741.03;5110557;27;20165;-66
2022/02/12 05:01:50;;;;;;;21.60;13.68;;;;;;;2.30;66.20;95740.91;5077862;28;20070;-66
2022/02/12 05:04:19;;;;;;;25.80;17.08;;;;;;;2.28;68.82;95747.81;5111730;28;20118;-66
2022/02/12 05:06:44;;;;;;;32.58;20.50;;;;;;;2.32;70.73;95751.97;5127244;27;20044;-66
2022/02/12 05:09:11;;;;;;;33.00;22.25;;;;;;;2.37;71.06;95759.50;5111333;27;20047;-65
2022/02/12 05:11:37;;;;;;;39.47;24.67;;;;;;;2.43;72.49;95766.97;5112195;28;20019;-66
2022/02/12 05:14:03;;;;;;;41.75;26.23;;;;;;;2.53;72.27;95768.28;5121765;27;20042;-66
2022/02/12 05:16:28;;;;;;;40.45;26.48;;;;;;;2.63;72.49;95764.50;5120771;27;20027;-66
2022/02/12 05:18:54;;;;;;;41.58;26.75;;;;;;;2.65;72.42;95775.56;5111665;28;20031;-66
2022/02/12 05:21:19;;;;;;;42.47;25.88;;;;;;;2.73;72.45;95771.88;5113291;27;20035;-67
2022/02/12 05:23:45;;;;;;;40.92;26.92;;;;;;;2.74;72.44;95760.72;5127956;27;20043;-66
2022/02/12 05:26:10;;;;;;;41.38;28.38;;;;;;;2.83;72.20;95780.91;5128771;27;20408;-66
2022/02/12 05:28:36;;;;;;;43.67;27.80;;;;;;;2.87;72.33;95783.31;5113668;27;20151;-66
2022/02/12 05:31:01;;;;;;;48.05;30.40;;;;;;;2.82;72.51;95789.50;5119041;27;20081;-66
2022/02/12 05:33:27;;;;;;;47.70;29.85;;;;;;;2.89;72.52;95783.25;5110129;28;20084;-67
2022/02/12 05:35:52;;;;;;;47.22;29.02;;;;;;;2.81;71.68;95752.72;5114855;27;20385;-66
2022/02/12 05:38:17;;;;;;;51.42;29.05;;;;;;;2.89;72.04;95778.09;5130092;27;20492;-66
2022/02/12 05:40:43;;;;;;;57.83;30.40;;;;;;;2.89;72.60;95790.94;5130313;27;20019;-66
2022/02/12 05:43:08;;;;;;;50.60;29.50;;;;;;;2.91;72.97;95790.00;5099810;28;20036;-66
2022/02/12 05:45:34;;;;;;;47.05;30.13;;;;;;;2.98;72.39;95784.63;5108665;28;20060;-66
2022/02/12 05:48:01;;;;;;;48.10;29.38;;;;;;;2.98;72.57;95795.75;5112658;28;20489;-68
2022/02/12 05:50:29;;;;;;;50.00;30.80;;;;;;;3.01;72.47;95802.47;5117978;28;20515;-66
2022/02/12 05:52:57;;;;;;;48.08;29.13;;;;;;;3.07;71.79;95808.25;5113929;28;20112;-66
2022/02/12 05:55:24;;;;;;;50.30;28.83;;;;;;;2.95;71.81;95789.88;5111064;28;20020;-66
2022/02/12 05:57:49;;;;;;;46.28;29.38;;;;;;;3.11;72.00;95811.50;5129848;28;20065;-66
2022/02/12 06:00:15;;;;;;;52.55;29.45;;;;;;;3.11;71.79;95812.34;5110979;28;20023;-66
2022/02/12 06:02:41;;;;;;;48.92;28.67;;;;;;;3.14;72.19;95801.97;5128655;28;20511;-66
2022/02/12 06:05:06;;;;;;;46.67;28.70;;;;;;;3.18;71.99;95817.28;5131250;27;20091;-66
2022/02/12 06:07:32;;;;;;;59.13;28.92;;;;;;;3.22;71.66;95813.69;5131249;27;20032;-66
2022/02/12 06:09:57;;;;;;;48.90;30.88;;;;;;;3.21;71.59;95822.28;5132157;27;20091;-66
2022/02/12 06:12:23;;;;;;;53.40;31.38;;;;;;;3.26;71.78;95830.63;5134355;27;20096;-66
2022/02/12 06:14:48;;;;;;;49.92;30.45;;;;;;;3.31;71.74;95823.59;5127959;27;20019;-66
2022/02/12 06:17:13;;;;;;;52.10;29.98;;;;;;;3.30;71.43;95835.59;5121436;27;20031;-66
2022/02/12 06:19:39;;;;;;;50.95;28.92;;;;;;;3.34;71.31;95826.91;5108892;27;20070;-66
2022/02/12 06:22:04;;;;;;;49.10;29.40;;;;;;;3.28;72.06;95836.56;5115974;27;20023;-66
2022/02/12 06:24:30;;;;;;;52.78;30.25;;;;;;;3.31;71.77;95827.00;5114787;27;20062;-66
2022/02/12 06:26:56;;;;;;;48.20;29.45;;;;;;;3.29;71.66;95835.69;5113422;28;20375;-66
2022/02/12 06:29:22;;;;;;;50.65;29.40;;;;;;;3.43;71.36;95842.88;5115922;27;20035;-66
2022/02/12 06:31:48;;;;;;;56.17;32.92;;;;;;;3.49;71.07;95848.59;5075587;28;20059;-66
2022/02/12 06:34:14;;;;;;;52.40;30.45;;;;;;;3.58;70.89;95845.66;5108171;28;20028;-66
2022/02/12 06:36:39;;;;;;;49.00;29.15;;;;;;;3.56;70.83;95847.44;5093228;28;20035;-66
2022/02/12 06:39:04;;;;;;;48.97;28.10;;;;;;;3.64;70.59;95854.03;5089667;28;20031;-66
2022/02/12 06:41:30;;;;;;;47.65;27.30;;;;;;;3.73;69.92;95858.78;5110506;27;20027;-66
2022/02/12 06:43:55;;;;;;;55.15;30.38;;;;;;;3.72;69.70;95857.97;5096006;28;20024;-66
2022/02/12 06:46:21;;;;;;;55.88;31.08;;;;;;;3.83;69.59;95867.00;5083096;27;20496;-66
2022/02/12 06:48:46;;;;;;;61.05;31.25;;;;;;;3.73;69.71;95863.94;5119802;27;20467;-66
2022/02/12 06:51:15;;;;;;;57.00;31.98;;;;;;;3.83;69.30;95875.53;5114773;28;20028;-66
2022/02/12 06:53:41;;;;;;;63.33;31.92;;;;;;;3.90;69.53;95870.97;5114133;27;20024;-66
2022/02/12 06:56:06;;;;;;;49.13;28.33;;;;;;;3.95;69.13;95877.63;5096454;28;20035;-66
2022/02/12 06:58:32;;;;;;;61.47;34.13;;;;;;;3.94;68.93;95880.25;5114345;28;20032;-66
2022/02/12 07:00:57;;;;;;;57.40;31.88;;;;;;;3.92;68.95;95885.44;5093846;28;20032;-66
2022/02/12 07:03:23;;;;;;;51.40;31.25;;;;;;;4.02;68.75;95899.63;5093821;28;20032;-66
2022/02/12 07:05:48;;;;;;;56.10;31.83;;;;;;;4.09;68.64;95909.66;5094030;28;20118;-66
2022/02/12 07:08:13;;;;;;;91.88;38.90;;;;;;;4.07;68.73;95911.44;5113971;27;20023;-66
2022/02/12 07:10:39;;;;;;;64.10;32.95;;;;;;;4.13;68.46;95906.09;5115258;27;20016;-67
2022/02/12 07:13:04;;;;;;;62.17;35.13;;;;;;;4.13;68.29;95917.19;5110597;27;20477;-66
2022/02/12 07:15:30;;;;;;;58.55;32.75;;;;;;;4.07;68.16;95924.31;5095132;28;20032;-66
2022/02/12 07:17:55;;;;;;;51.97;30.52;;;;;;;4.01;67.83;95933.97;5097685;28;20028;-67
2022/02/12 07:20:21;;;;;;;54.05;31.52;;;;;;;3.96;67.45;95922.19;5112936;27;20405;-68
2022/02/12 07:22:46;;;;;;;45.40;26.20;;;;;;;3.96;67.86;95925.59;5131973;27;20027;-67
2022/02/12 07:25:12;;;;;;;50.60;30.33;;;;;;;3.88;68.06;95922.47;5112268;28;20047;-68
2022/02/12 07:27:38;;;;;;;57.47;32.00;;;;;;;3.97;67.20;95927.25;5095944;28;20059;-68
2022/02/12 07:30:05;;;;;;;48.65;27.70;;;;;;;3.93;67.08;95925.72;5112389;28;20425;-67
2022/02/12 07:32:31;;;;;;;46.08;26.17;;;;;;;4.03;66.87;95934.72;5112013;27;20031;-68
2022/02/12 07:34:56;;;;;;;33.45;21.65;;;;;;;3.98;66.18;95928.94;5121797;27;20019;-67
2022/02/12 07:37:22;;;;;;;38.47;22.65;;;;;;;3.96;66.23;95923.00;5131937;27;20484;-68
2022/02/12 07:39:48;;;;;;;36.38;22.08;;;;;;;4.29;65.60;95943.16;5132444;27;20031;-67
2022/02/12 07:42:13;;;;;;;38.55;21.30;;;;;;;4.32;64.97;95937.88;5115680;27;20034;-67
2022/02/12 07:44:38;;;;;;;36.20;18.77;;;;;;;4.57;64.33;95924.84;5129314;27;20054;-67
2022/02/12 07:47:04;;;;;;;37.42;20.42;;;;;;;4.64;63.13;95917.69;5097241;28;20444;-73
2022/02/12 07:49:30;;;;;;;62.70;29.30;;;;;;;4.97;62.74;95927.47;5096016;27;20063;-74
2022/02/12 07:51:55;;;;;;;56.08;24.15;;;;;;;5.24;61.18;95926.28;5116288;27;20062;-74
2022/02/12 07:54:21;;;;;;;72.13;32.15;;;;;;;5.44;60.33;95914.25;5130990;27;20030;-76
2022/02/12 07:56:46;;;;;;;52.95;22.80;;;;;;;5.62;59.74;95928.84;5132761;27;20027;-71
2022/02/12 07:59:12;;;;;;;51.50;26.58;;;;;;;5.83;58.39;95927.88;5133783;27;20128;-73
2022/02/12 08:01:37;;;;;;;38.85;18.52;;;;;;;6.01;57.62;95938.28;5133760;27;20549;-69
2022/02/12 08:04:03;;;;;;;27.80;16.75;;;;;;;6.35;56.97;95934.09;5111776;27;20028;-69
2022/02/12 08:09:12;;;;;;;27.42;12.98;;;;;;;6.63;54.63;95931.84;5123650;27;20531;-67
2022/02/12 08:11:40;;;;;;;24.48;14.90;;;;;;;6.83;54.51;95922.25;5119267;27;20027;-67
2022/02/12 08:14:05;;;;;;;20.30;13.48;;;;;;;7.06;53.44;95934.00;5133413;27;20023;-67
2022/02/12 08:16:31;;;;;;;25.02;14.15;;;;;;;7.28;53.19;95926.81;5132323;27;20046;-67
2022/02/12 08:18:56;;;;;;;21.08;12.35;;;;;;;7.18;53.22;95928.19;5132187;27;20027;-68
2022/02/12 08:21:22;;;;;;;25.27;14.48;;;;;;;6.99;53.44;95917.97;5117436;27;20489;-67
2022/02/12 08:23:47;;;;;;;26.90;16.27;;;;;;;7.11;53.72;95929.44;5112488;28;20544;-68
2022/02/12 08:26:14;;;;;;;22.42;14.25;;;;;;;7.16;53.67;95925.72;5109925;28;20028;-68
2022/02/12 08:28:40;;;;;;;78.70;51.08;;;;;;;7.19;52.95;95926.44;5111273;28;20027;-67
2022/02/12 08:31:06;;;;;;;22.08;14.15;;;;;;;7.14;53.74;95916.34;5077051;28;20508;-68
2022/02/12 08:33:32;;;;;;;17.15;12.07;;;;;;;7.13;52.82;95925.88;5116333;27;20042;-68
2022/02/12 08:35:57;;;;;;;16.95;12.23;;;;;;;7.20;52.13;95926.38;5133436;27;20038;-68
2022/02/12 08:38:23;;;;;;;20.98;12.07;;;;;;;7.28;52.27;95925.97;5127341;27;20028;-68
2022/02/12 08:40:48;;;;;;;18.45;11.80;;;;;;;7.36;51.67;95934.16;5110993;28;20027;-68
2022/02/12 08:43:14;;;;;;;21.88;13.05;;;;;;;7.33;51.02;95932.59;5112100;27;20039;-68
2022/02/12 08:45:39;;;;;;;29.85;16.73;;;;;;;7.31;51.49;95931.81;5112453;28;20038;-68
2022/02/12 08:48:07;;;;;;;28.08;16.73;;;;;;;7.37;50.98;95941.00;5094162;28;20031;-68
2022/02/12 08:50:32;;;;;;;16.70;11.35;;;;;;;7.24;50.92;95934.78;5113628;27;20088;-68
2022/02/12 08:52:58;;;;;;;18.70;12.30;;;;;;;7.28;51.71;95939.75;5121363;27;20525;-68
2022/02/12 08:55:24;;;;;;;23.17;14.75;;;;;;;7.33;51.17;95939.50;5111919;28;20028;-68
2022/02/12 08:57:49;;;;;;;21.02;11.43;;;;;;;7.27;50.29;95942.38;5117129;27;20028;-68
2022/02/12 09:00:15;;;;;;;24.73;13.35;;;;;;;7.18;50.32;95950.63;5117083;27;20381;-68
2022/02/12 09:02:41;;;;;;;23.92;13.98;;;;;;;7.25;50.74;95939.91;5123265;27;20082;-68
2022/02/12 09:05:06;;;;;;;18.40;11.68;;;;;;;7.19;50.38;95942.81;5112099;27;20035;-68
2022/02/12 09:07:32;;;;;;;29.35;13.85;;;;;;;7.21;50.20;95938.38;5118806;27;20038;-68
2022/02/12 09:09:58;;;;;;;31.00;14.60;;;;;;;7.27;50.56;95944.97;5113593;27;20028;-67
2022/02/12 09:12:24;;;;;;;21.75;12.07;;;;;;;7.26;49.70;95941.56;5109203;27;20096;-69
2022/02/12 09:14:50;;;;;;;24.00;13.23;;;;;;;7.23;50.58;95926.22;5117264;27;20030;-69
2022/02/12 09:17:15;;;;;;;23.17;11.23;;;;;;;7.35;49.31;95927.31;5116081;27;20092;-68
2022/02/12 09:19:40;;;;;;;17.50;11.32;;;;;;;7.40;49.78;95943.44;5093437;28;20027;-69
2022/02/12 09:22:06;;;;;;;16.45;10.35;;;;;;;7.50;49.36;95942.03;5093116;28;20485;-68
2022/02/12 09:24:31;;;;;;;22.95;13.70;;;;;;;7.47;49.45;95937.03;5109987;28;20494;-68
2022/02/12 09:26:57;;;;;;;18.90;12.98;;;;;;;7.46;50.02;95934.50;5111301;28;20023;-68
2022/02/12 09:29:22;;;;;;;19.35;11.77;;;;;;;7.56;48.60;95931.38;5124843;27;20043;-68
2022/02/12 09:31:48;;;;;;;15.35;9.88;;;;;;;7.66;49.52;95933.44;5103038;27;20473;-69
2022/02/12 09:34:13;;;;;;;14.45;9.50;;;;;;;7.67;48.89;95940.31;5131750;27;20031;-68
2022/02/12 09:36:39;;;;;;;14.05;8.77;;;;;;;7.66;49.03;95941.22;5122578;27;20019;-69
2022/02/12 09:39:05;;;;;;;14.77;9.35;;;;;;;7.74;49.85;95932.13;5100451;28;20036;-69
2022/02/12 09:41:30;;;;;;;17.35;11.23;;;;;;;7.72;49.34;95935.72;5114493;27;20023;-69
2022/02/12 09:43:56;;;;;;;15.52;9.52;;;;;;;7.71;48.38;95918.53;5087123;28;20047;-69
2022/02/12 09:46:30;;;;;;;18.42;10.50;;;;;;;7.78;48.75;95922.47;5108611;27;20057;-69
2022/02/12 09:48:59;;;;;;;19.80;10.70;;;;;;;7.77;48.38;95931.97;5116645;28;20031;-68
2022/02/12 09:51:25;;;;;;;14.43;8.23;;;;;;;7.71;47.88;95921.94;5112292;28;20107;-67
2022/02/12 09:53:51;;;;;;;27.67;14.25;;;;;;;7.66;48.82;95923.09;5099291;28;20049;-65
2022/02/12 09:56:16;;;;;;;25.90;11.60;;;;;;;7.68;48.52;95923.88;5098798;28;20047;-66
2022/02/12 09:58:42;;;;;;;26.88;13.43;;;;;;;7.78;48.16;95914.69;5105369;28;20534;-66
2022/02/12 10:01:08;;;;;;;177.35;68.60;;;;;;;7.78;48.59;95909.53;5110395;28;20077;-67
2022/02/12 10:03:33;;;;;;;53.63;22.73;;;;;;;7.93;48.07;95911.25;5089508;28;20032;-68
2022/02/12 10:05:59;;;;;;;39.50;19.00;;;;;;;8.02;47.83;95908.19;5110104;28;20043;-71
2022/02/12 10:08:25;;;;;;;72.65;37.85;;;;;;;8.13;47.62;95904.97;5110728;28;20036;-69
2022/02/12 10:10:53;;;;;;;19.17;10.80;;;;;;;8.13;47.21;95898.97;5111251;28;20039;-67
2022/02/12 10:13:23;;;;;;;47.60;30.52;;;;;;;8.18;47.34;95892.63;5109674;28;20409;-66
2022/02/12 10:15:56;;;;;;;22.77;12.70;;;;;;;8.25;46.91;95898.31;5098967;28;20023;-67
2022/02/12 10:18:22;;;;;;;57.72;29.15;;;;;;;8.26;47.37;95902.53;5107782;28;20509;-67
2022/02/12 10:20:48;;;;;;;22.25;12.40;;;;;;;8.27;46.26;95901.63;5089485;28;20028;-66
2022/02/12 10:23:18;;;;;;;19.50;11.63;;;;;;;8.29;46.01;95900.59;5091785;28;20066;-69
2022/02/12 10:25:48;;;;;;;19.65;9.63;;;;;;;8.38;46.86;95896.66;5087608;28;20387;-68
2022/02/12 10:28:14;;;;;;;13.57;7.22;;;;;;;8.32;45.69;95893.59;5073012;28;20085;-69
2022/02/12 10:30:40;;;;;;;55.88;31.55;;;;;;;8.39;46.10;95900.97;5098223;28;20036;-69
2022/02/12 10:33:07;;;;;;;16.15;9.77;;;;;;;8.45;45.52;95900.63;5112433;28;20533;-69
2022/02/12 10:35:32;;;;;;;14.55;8.05;;;;;;;8.38;45.12;95891.47;5117437;28;20404;-69
2022/02/12 10:37:59;;;;;;;14.35;8.88;;;;;;;8.45;45.20;95892.84;5091765;28;20031;-68
2022/02/12 10:40:26;;;;;;;13.52;8.25;;;;;;;8.37;45.38;95884.66;5091115;28;20024;-69
2022/02/12 10:42:51;;;;;;;20.58;7.82;;;;;;;8.35;45.19;95881.31;5111679;28;20416;-68
2022/02/12 10:45:18;;;;;;;14.63;7.93;;;;;;;8.25;45.39;95869.81;5129398;27;20031;-68
2022/02/12 10:47:44;;;;;;;21.58;11.25;;;;;;;8.31;45.54;95885.00;5092376;28;20027;-68
2022/02/12 10:50:12;;;;;;;21.42;10.23;;;;;;;8.39;45.26;95875.06;5106635;28;20063;-68
2022/02/12 10:52:48;;;;;;;15.05;9.23;;;;;;;8.44;45.28;95870.47;5087648;28;20108;-69
2022/02/12 10:55:32;;;;;;;26.92;11.35;;;;;;;8.59;45.67;95875.69;5109624;28;20252;-69
2022/02/12 10:58:00;;;;;;;23.95;18.27;;;;;;;8.69;45.11;95869.03;5111556;27;20044;-69
2022/02/12 11:00:27;;;;;;;16.85;9.90;;;;;;;8.80;43.15;95866.63;5097361;28;20042;-69
2022/02/12 11:02:56;;;;;;;14.45;9.82;;;;;;;8.71;43.69;95870.59;5107942;28;20047;-69
2022/02/12 11:05:25;;;;;;;34.58;24.30;;;;;;;8.78;43.93;95863.31;5111395;28;20104;-69
2022/02/12 11:07:51;;;;;;;13.15;8.65;;;;;;;8.79;43.16;95864.16;5105902;28;20092;-69
2022/02/12 11:10:17;;;;;;;12.18;8.05;;;;;;;8.79;43.88;95857.19;5074979;28;20035;-68
2022/02/12 11:12:42;;;;;;;18.15;11.85;;;;;;;8.88;43.95;95861.00;5109132;27;20494;-67
2022/02/12 11:15:09;;;;;;;20.08;12.82;;;;;;;8.89;43.60;95855.75;5098043;28;20035;-68
2022/02/12 11:17:34;;;;;;;29.85;20.05;;;;;;;9.02;43.70;95853.22;5083013;28;20057;-67
2022/02/12 11:20:01;;;;;;;31.33;21.67;;;;;;;9.00;42.68;95857.69;5090703;27;20031;-66
2022/02/12 11:22:27;;;;;;;19.73;12.93;;;;;;;9.10;42.35;95851.00;5075824;28;20143;-68
2022/02/12 11:24:52;;;;;;;14.27;8.55;;;;;;;9.02;42.16;95855.00;5098848;28;20052;-68
2022/02/12 11:27:21;;;;;;;13.45;8.43;;;;;;;9.04;41.83;95853.97;5108285;28;20036;-70
2022/02/12 11:29:50;;;;;;;14.80;9.90;;;;;;;9.03;42.33;95849.72;5106426;27;20560;-68
2022/02/12 11:32:17;;;;;;;21.48;11.82;;;;;;;9.07;41.97;95842.59;5097837;27;20028;-68